createdAt,value
2019-05-26T00:01:58.366Z,45.78
2019-05-26T00:04:28.760Z,46.03
2019-05-26T00:07:06.589Z,46.23
2019-05-26T00:09:35.912Z,46.34
2019-05-26T00:12:08.886Z,46.49
2019-05-26T00:14:37.976Z,46.75
2019-05-26T00:17:07.026Z,46.96
2019-05-26T00:19:39.167Z,47.00
2019-05-26T00:22:11.393Z,46.94
2019-05-26T00:24:42.059Z,46.95
2019-05-26T00:27:15.126Z,47.03
2019-05-26T00:29:44.182Z,47.03
2019-05-26T00:32:13.246Z,47.23
2019-05-26T00:37:47.684Z,47.57
2019-05-26T00:40:05.515Z,47.54
2019-05-26T00:42:38.251Z,47.74
2019-05-26T00:45:10.459Z,48.01
2019-05-26T00:47:39.535Z,48.11
2019-05-26T00:50:19.284Z,48.37
2019-05-26T00:52:56.683Z,48.68
2019-05-26T00:55:25.368Z,49.10
2019-05-26T00:57:56.277Z,49.31
2019-05-26T01:00:46.769Z,49.39
2019-05-26T01:03:15.814Z,49.53
2019-05-26T01:05:45.160Z,49.64
2019-05-26T01:08:46.410Z,49.94
2019-05-26T01:10:55.108Z,50.16
2019-05-26T01:13:53.921Z,50.13
2019-05-26T01:16:25.964Z,50.20
2019-05-26T01:19:12.036Z,50.39
2019-05-26T01:21:44.338Z,50.59
2019-05-26T01:24:13.414Z,50.75
2019-05-26T01:26:46.848Z,50.79
2019-05-26T01:29:25.980Z,50.75
2019-05-26T01:31:55.039Z,50.81
2019-05-26T01:34:24.100Z,50.85
2019-05-26T01:37:31.490Z,50.91
2019-05-26T01:43:40.563Z,51.02
2019-05-26T01:46:09.625Z,51.13
2019-05-26T01:48:38.677Z,51.12
2019-05-26T01:51:07.782Z,51.20
2019-05-26T01:53:37.165Z,51.15
2019-05-26T01:56:09.164Z,51.07
2019-05-26T01:58:47.527Z,51.34
2019-05-26T02:01:16.969Z,51.32
2019-05-26T02:03:46.037Z,51.62
2019-05-26T02:06:24.225Z,51.87
2019-05-26T02:08:53.613Z,52.11
2019-05-26T02:11:22.689Z,52.16
2019-05-26T02:13:51.875Z,52.21
2019-05-26T02:16:20.924Z,52.69
2019-05-26T02:18:50.036Z,52.79
2019-05-26T02:21:19.168Z,52.78
2019-05-26T02:23:48.501Z,53.04
2019-05-26T02:26:17.666Z,53.04
2019-05-26T02:28:46.723Z,52.96
2019-05-26T02:31:16.983Z,53.17
2019-05-26T02:33:46.093Z,53.34
2019-05-26T02:36:15.141Z,53.54
2019-05-26T02:39:01.123Z,53.41
2019-05-26T02:41:15.021Z,53.52
2019-05-26T02:43:44.381Z,53.64
2019-05-26T02:46:13.469Z,53.74
2019-05-26T02:48:42.550Z,53.85
2019-05-26T02:51:11.593Z,54.10
2019-05-26T02:53:40.923Z,54.30
2019-05-26T02:56:10.016Z,54.14
2019-05-26T02:58:39.054Z,54.17
2019-05-26T03:01:08.117Z,54.22
2019-05-26T03:03:37.479Z,54.31
2019-05-26T03:06:07.173Z,54.36
2019-05-26T03:08:36.315Z,54.45
2019-05-26T03:11:05.709Z,54.31
2019-05-26T03:13:36.597Z,54.72
2019-05-26T03:16:10.829Z,54.68
2019-05-26T03:18:40.260Z,54.74
2019-05-26T03:21:10.885Z,54.76
2019-05-26T03:23:41.855Z,54.55
2019-05-26T03:26:12.588Z,54.83
2019-05-26T03:28:41.661Z,54.75
2019-05-26T03:31:10.763Z,54.66
2019-05-26T03:33:40.710Z,55.10
2019-05-26T03:36:10.638Z,55.06
2019-05-26T03:38:39.938Z,55.23
2019-05-26T03:41:08.977Z,55.26
2019-05-26T03:43:38.057Z,55.20
2019-05-26T03:46:20.381Z,55.18
2019-05-26T03:48:50.175Z,55.21
2019-05-26T03:51:19.346Z,55.18
2019-05-26T03:53:48.436Z,55.28
2019-05-26T03:56:17.480Z,55.14
2019-05-26T03:58:49.689Z,55.25
2019-05-26T04:01:18.755Z,55.45
2019-05-26T04:03:48.133Z,55.64
2019-05-26T04:06:17.179Z,55.47
2019-05-26T04:08:46.355Z,56.05
2019-05-26T04:11:15.466Z,56.08
2019-05-26T04:13:44.795Z,56.27
2019-05-26T04:16:18.913Z,56.15
2019-05-26T04:18:52.797Z,56.14
2019-05-26T04:21:26.944Z,57.09
2019-05-26T04:23:59.022Z,57.07
2019-05-26T04:26:30.516Z,57.01
2019-05-26T04:29:03.930Z,56.89
2019-05-26T04:31:33.310Z,56.49
2019-05-26T04:34:04.024Z,56.55
2019-05-26T04:36:35.544Z,56.37
2019-05-26T04:39:08.683Z,56.30
2019-05-26T04:41:40.748Z,56.37
2019-05-26T04:44:13.434Z,55.95
2019-05-26T04:46:43.860Z,55.66
2019-05-26T04:49:13.778Z,55.53
2019-05-26T04:51:42.831Z,55.41
2019-05-26T04:54:12.186Z,55.21
2019-05-26T04:56:41.255Z,54.86
2019-05-26T04:59:10.351Z,53.88
2019-05-26T05:01:39.456Z,53.24
2019-05-26T05:04:08.801Z,54.03
2019-05-26T05:06:37.998Z,53.78
2019-05-26T05:09:08.086Z,53.58
2019-05-26T05:11:37.178Z,53.40
2019-05-26T05:14:09.070Z,53.30
2019-05-26T05:16:38.155Z,53.04
2019-05-26T05:19:07.217Z,52.50
2019-05-26T05:21:36.648Z,52.38
2019-05-26T05:24:05.764Z,52.73
2019-05-26T05:26:34.858Z,52.33
2019-05-26T05:29:03.989Z,51.92
2019-05-26T05:31:33.070Z,51.98
2019-05-26T05:34:03.010Z,51.29
2019-05-26T05:36:32.530Z,51.37
2019-05-26T05:39:02.707Z,50.96
2019-05-26T05:41:31.788Z,51.00
2019-05-26T05:44:01.172Z,51.29
2019-05-26T05:46:30.310Z,51.58
2019-05-26T05:48:59.374Z,51.28
2019-05-26T05:51:28.452Z,51.31
2019-05-26T05:53:57.820Z,51.38
2019-05-26T05:56:26.873Z,51.43
2019-05-26T05:58:55.940Z,51.34
2019-05-26T06:01:25.398Z,51.49
2019-05-26T06:03:54.450Z,51.38
2019-05-26T06:06:23.493Z,51.37
2019-05-26T06:08:53.055Z,50.77
2019-05-26T06:11:22.135Z,50.97
2019-05-26T06:13:51.265Z,50.62
2019-05-26T06:16:20.280Z,51.16
2019-05-26T06:18:52.406Z,50.12
2019-05-26T06:21:21.458Z,50.14
2019-05-26T06:23:54.814Z,50.02
2019-05-26T06:26:23.921Z,49.62
2019-05-26T06:28:52.964Z,49.39
2019-05-26T06:31:22.360Z,48.71
2019-05-26T06:33:51.417Z,48.96
2019-05-26T06:36:20.467Z,48.47
2019-05-26T06:38:49.559Z,48.49
2019-05-26T06:41:32.798Z,48.83
2019-05-26T06:43:52.060Z,48.86
2019-05-26T06:46:21.166Z,48.92
2019-05-26T06:48:50.242Z,48.77
2019-05-26T06:51:19.394Z,48.99
2019-05-26T06:53:48.505Z,48.59
2019-05-26T06:56:17.965Z,48.46
2019-05-26T06:58:47.156Z,48.65
2019-05-26T07:01:16.322Z,48.32
2019-05-26T07:03:45.768Z,48.36
2019-05-26T07:06:14.845Z,48.67
2019-05-26T07:08:43.955Z,48.53
2019-05-26T07:11:15.505Z,48.41
2019-05-26T07:13:44.620Z,48.97
2019-05-26T07:16:13.718Z,48.94
2019-05-26T07:18:43.058Z,48.44
2019-05-26T07:21:12.121Z,49.05
2019-05-26T07:23:41.662Z,48.71
2019-05-26T07:26:12.673Z,48.80
2019-05-26T07:28:41.808Z,48.75
2019-05-26T07:31:10.898Z,48.90
2019-05-26T07:33:40.023Z,48.72
2019-05-26T07:36:09.595Z,48.95
2019-05-26T07:38:38.729Z,48.87
2019-05-26T07:41:08.110Z,49.37
2019-05-26T07:43:40.897Z,49.10
2019-05-26T07:46:10.887Z,48.98
2019-05-26T07:48:40.440Z,49.29
2019-05-26T07:51:14.029Z,49.13
2019-05-26T07:53:46.101Z,48.64
2019-05-26T07:56:16.876Z,49.43
2019-05-26T07:58:47.056Z,49.34
2019-05-26T08:01:16.162Z,49.37
2019-05-26T08:03:46.675Z,49.56
2019-05-26T08:06:16.186Z,50.10
2019-05-26T08:08:45.374Z,49.89
2019-05-26T08:11:17.338Z,50.06
2019-05-26T08:13:53.079Z,49.88
2019-05-26T08:16:22.798Z,49.49
2019-05-26T08:18:55.570Z,49.05
2019-05-26T08:21:24.992Z,49.31
2019-05-26T08:23:54.439Z,49.50
2019-05-26T08:26:23.606Z,49.13
2019-05-26T08:28:54.721Z,48.25
2019-05-26T08:31:24.281Z,47.81
2019-05-26T08:33:53.520Z,47.89
2019-05-26T08:36:23.604Z,47.25
2019-05-26T08:38:53.677Z,46.95
2019-05-26T08:44:17.855Z,46.15
2019-05-26T08:46:48.045Z,46.16
2019-05-26T08:49:17.859Z,45.90
2019-05-26T08:51:49.867Z,46.00
2019-05-26T08:54:20.114Z,46.07
2019-05-26T08:56:52.279Z,45.78
2019-05-26T08:59:22.759Z,45.55
2019-05-26T09:01:52.383Z,45.89
2019-05-26T09:04:21.753Z,45.79
2019-05-26T09:06:51.137Z,46.28
2019-05-26T09:09:20.210Z,45.29
2019-05-26T09:11:49.275Z,45.53
2019-05-26T09:14:18.683Z,45.22
2019-05-26T09:16:47.879Z,44.99
2019-05-26T09:19:17.429Z,45.06
2019-05-26T09:21:47.007Z,45.14
2019-05-26T09:24:16.099Z,44.62
2019-05-26T09:26:45.419Z,44.73
2019-05-26T09:29:14.791Z,45.08
2019-05-26T09:31:44.270Z,44.40
2019-05-26T09:34:13.327Z,44.15
2019-05-26T09:36:43.707Z,43.16
2019-05-26T09:39:12.768Z,43.08
2019-05-26T09:41:46.236Z,43.44
2019-05-26T09:44:15.742Z,43.43
2019-05-26T09:46:44.830Z,43.45
2019-05-26T09:49:14.873Z,43.19
2019-05-26T09:51:44.448Z,43.09
2019-05-26T09:54:13.554Z,43.21
2019-05-26T09:56:42.610Z,43.06
2019-05-26T09:59:14.325Z,42.61
2019-05-26T10:01:43.434Z,42.45
2019-05-26T10:04:12.520Z,42.20
2019-05-26T10:06:49.237Z,42.48
2019-05-26T10:09:19.882Z,42.96
2019-05-26T10:11:49.179Z,42.71
2019-05-26T10:14:19.629Z,42.87
2019-05-26T10:16:49.921Z,42.79
2019-05-26T10:19:34.122Z,42.84
2019-05-26T10:22:05.020Z,43.03
2019-05-26T10:24:40.959Z,42.94
2019-05-26T10:27:10.024Z,42.70
2019-05-26T10:29:39.106Z,42.70
2019-05-26T10:32:08.479Z,42.36
2019-05-26T10:34:38.158Z,42.30
2019-05-26T10:37:08.340Z,42.43
2019-05-26T10:39:38.776Z,41.90
2019-05-26T10:42:13.288Z,41.90
2019-05-26T10:44:43.309Z,41.60
2019-05-26T10:47:12.815Z,41.39
2019-05-26T10:49:41.894Z,40.28
2019-05-26T10:52:11.136Z,39.81
2019-05-26T10:54:40.624Z,39.18
2019-05-26T10:57:09.717Z,38.80
2019-05-26T10:59:38.869Z,39.04
2019-05-26T11:02:09.654Z,39.63
2019-05-26T11:04:39.795Z,39.19
2019-05-26T11:07:08.908Z,39.30
2019-05-26T11:09:38.908Z,39.39
2019-05-26T11:12:08.260Z,39.01
2019-05-26T11:14:37.621Z,40.66
2019-05-26T11:17:07.104Z,39.93
2019-05-26T11:19:36.173Z,40.07
2019-05-26T11:22:06.240Z,38.98
2019-05-26T11:24:35.824Z,38.38
2019-05-26T11:27:10.762Z,39.86
2019-05-26T11:29:35.835Z,40.03
2019-05-26T11:32:06.061Z,40.56
2019-05-26T11:34:35.168Z,39.83
2019-05-26T11:37:04.410Z,38.95
2019-05-26T11:39:33.826Z,38.97
2019-05-26T11:42:12.905Z,38.49
2019-05-26T11:44:34.917Z,37.98
2019-05-26T11:47:04.610Z,37.06
2019-05-26T11:49:33.716Z,36.80
2019-05-26T11:52:04.482Z,36.17
2019-05-26T11:54:34.855Z,35.83
2019-05-26T11:57:04.319Z,35.79
2019-05-26T11:59:33.412Z,35.34
2019-05-26T12:02:04.501Z,35.71
2019-05-26T12:04:35.368Z,35.42
2019-05-26T12:07:04.889Z,35.95
2019-05-26T12:09:36.565Z,34.84
2019-05-26T12:12:09.809Z,34.32
2019-05-26T12:14:38.990Z,33.69
2019-05-26T12:17:08.370Z,34.05
2019-05-26T12:19:38.410Z,35.25
2019-05-26T12:22:08.600Z,36.15
2019-05-26T12:24:37.925Z,35.74
2019-05-26T12:27:07.338Z,36.49
2019-05-26T12:29:36.600Z,35.96
2019-05-26T12:32:08.663Z,35.06
2019-05-26T12:34:39.163Z,34.68
2019-05-26T12:37:08.443Z,34.10
2019-05-26T12:39:39.347Z,34.81
2019-05-26T12:42:11.495Z,34.28
2019-05-26T12:44:49.419Z,34.48
2019-05-26T12:47:13.705Z,34.37
2019-05-26T12:49:43.399Z,33.78
2019-05-26T12:52:12.543Z,34.37
2019-05-26T12:54:41.625Z,34.24
2019-05-26T12:57:12.001Z,33.81
2019-05-26T12:59:41.080Z,32.92
2019-05-26T13:02:10.237Z,31.35
2019-05-26T13:04:39.726Z,30.82
2019-05-26T13:07:08.823Z,29.91
2019-05-26T13:09:37.902Z,29.17
2019-05-26T13:12:07.414Z,28.40
2019-05-26T13:14:36.635Z,27.12
2019-05-26T13:17:07.346Z,25.68
2019-05-26T13:19:37.267Z,25.29
2019-05-26T13:22:06.603Z,25.38
2019-05-26T13:24:35.700Z,25.71
2019-05-26T13:27:05.276Z,25.87
2019-05-26T13:29:34.338Z,25.07
2019-05-26T13:32:04.662Z,24.85
2019-05-26T13:34:35.882Z,25.31
2019-05-26T13:37:05.897Z,25.45
2019-05-26T13:39:34.972Z,24.84
2019-05-26T13:42:07.357Z,24.17
2019-05-26T13:44:36.736Z,22.74
2019-05-26T13:47:05.848Z,22.42
2019-05-26T13:49:35.308Z,21.59
2019-05-26T13:52:08.518Z,21.37
2019-05-26T13:54:37.604Z,22.23
2019-05-26T13:57:07.046Z,21.86
2019-05-26T13:59:37.937Z,21.74
2019-05-26T14:02:07.284Z,20.99
2019-05-26T14:04:36.814Z,20.37
2019-05-26T14:07:08.802Z,19.98
2019-05-26T14:09:44.185Z,20.69
2019-05-26T14:12:13.561Z,21.22
2019-05-26T14:14:42.652Z,20.98
2019-05-26T14:17:12.348Z,20.62
2019-05-26T14:19:43.272Z,21.45
2019-05-26T14:22:12.324Z,22.54
2019-05-26T14:24:53.289Z,23.47
2019-05-26T14:27:12.566Z,24.27
2019-05-26T14:29:41.660Z,24.02
2019-05-26T14:32:13.558Z,23.41
2019-05-26T14:34:42.910Z,23.50
2019-05-26T14:37:11.964Z,21.69
2019-05-26T14:39:41.027Z,21.04
2019-05-26T14:42:10.363Z,20.52
2019-05-26T14:44:39.439Z,20.84
2019-05-26T14:47:08.516Z,22.33
2019-05-26T14:49:37.911Z,23.87
2019-05-26T14:52:07.088Z,25.42
2019-05-26T14:54:36.195Z,26.39
2019-05-26T14:57:05.597Z,26.59
2019-05-26T14:59:34.711Z,26.76
2019-05-26T15:02:05.832Z,25.59
2019-05-26T15:04:35.243Z,24.38
2019-05-26T15:07:04.415Z,24.76
2019-05-26T15:09:33.522Z,24.78
2019-05-26T15:12:03.933Z,24.81
2019-05-26T15:14:32.961Z,24.62
2019-05-26T15:17:02.061Z,23.22
2019-05-26T15:19:31.146Z,21.16
2019-05-26T15:22:00.215Z,19.50
2019-05-26T15:24:29.773Z,20.39
2019-05-26T15:26:58.832Z,21.21
2019-05-26T15:29:28.179Z,23.06
2019-05-26T15:31:57.306Z,22.26
2019-05-26T15:34:26.379Z,21.35
2019-05-26T15:36:56.754Z,21.87
2019-05-26T15:39:25.852Z,22.20
2019-05-26T15:41:54.955Z,23.79
2019-05-26T15:44:24.489Z,24.61
2019-05-26T15:46:53.683Z,24.93
2019-05-26T15:49:22.775Z,24.84
2019-05-26T15:51:52.146Z,24.11
2019-05-26T15:54:21.442Z,23.76
2019-05-26T15:56:50.898Z,24.34
2019-05-26T15:59:20.248Z,24.99
2019-05-26T16:01:49.344Z,25.53
2019-05-26T16:04:19.276Z,25.61
2019-05-26T16:06:48.659Z,25.52
2019-05-26T16:09:17.790Z,25.45
2019-05-26T16:11:46.863Z,25.62
2019-05-26T16:14:16.308Z,25.50
2019-05-26T16:16:45.425Z,25.18
2019-05-26T16:19:14.478Z,25.51
2019-05-26T16:21:43.873Z,26.19
2019-05-26T16:24:12.943Z,26.63
2019-05-26T16:26:42.036Z,26.40
2019-05-26T16:29:11.699Z,27.11
2019-05-26T16:31:40.793Z,26.91
2019-05-26T16:34:10.525Z,27.11
2019-05-26T16:36:40.043Z,27.67
2019-05-26T16:39:09.177Z,27.95
2019-05-26T16:41:38.296Z,28.02
2019-05-26T16:44:10.771Z,27.95
2019-05-26T16:46:53.664Z,28.17
2019-05-26T16:49:11.039Z,28.17
2019-05-26T16:51:40.365Z,28.46
2019-05-26T16:54:09.468Z,28.51
2019-05-26T16:56:38.568Z,28.64
2019-05-26T16:59:08.074Z,28.95
2019-05-26T17:01:37.403Z,29.36
2019-05-26T17:04:06.477Z,29.63
2019-05-26T17:06:36.796Z,30.05
2019-05-26T17:09:11.391Z,29.67
2019-05-26T17:11:40.503Z,30.16
2019-05-26T17:14:09.582Z,30.16
2019-05-26T17:16:39.096Z,30.52
2019-05-26T17:19:08.702Z,30.94
2019-05-26T17:21:37.785Z,30.96
2019-05-26T17:24:07.107Z,30.99
2019-05-26T17:26:36.630Z,30.89
2019-05-26T17:29:05.943Z,30.90
2019-05-26T17:31:35.162Z,30.21
2019-05-26T17:34:07.782Z,29.64
2019-05-26T17:36:37.209Z,28.96
2019-05-26T17:39:07.921Z,28.68
2019-05-26T17:41:37.594Z,28.39
2019-05-26T17:44:07.061Z,28.55
2019-05-26T17:46:36.375Z,28.47
2019-05-26T17:49:06.008Z,29.04
2019-05-26T17:51:35.281Z,29.17
2019-05-26T17:54:07.182Z,29.21
2019-05-26T17:56:36.680Z,28.87
2019-05-26T17:59:05.821Z,28.88
2019-05-26T18:01:34.934Z,28.96
2019-05-26T18:04:06.785Z,28.86
2019-05-26T18:06:35.912Z,29.08
2019-05-26T18:09:08.424Z,29.59
2019-05-26T18:11:37.545Z,29.85
2019-05-26T18:14:06.658Z,30.20
2019-05-26T18:16:36.070Z,30.59
2019-05-26T18:19:05.229Z,30.73
2019-05-26T18:21:34.476Z,31.39
2019-05-26T18:24:12.417Z,31.60
2019-05-26T18:26:44.411Z,31.99
2019-05-26T18:29:14.146Z,32.19
2019-05-26T18:31:43.551Z,32.48
2019-05-26T18:34:13.747Z,32.52
2019-05-26T18:36:43.038Z,32.73
2019-05-26T18:39:13.870Z,33.03
2019-05-26T18:41:43.305Z,33.29
2019-05-26T18:44:12.443Z,33.44
2019-05-26T18:46:41.933Z,33.58
2019-05-26T18:49:11.678Z,33.87
2019-05-26T18:51:41.227Z,34.31
2019-05-26T18:54:11.041Z,34.43
2019-05-26T18:56:40.205Z,34.65
2019-05-26T18:59:09.651Z,35.01
2019-05-26T19:01:39.515Z,35.07
2019-05-26T19:04:08.626Z,35.30
2019-05-26T19:06:37.753Z,35.35
2019-05-26T19:09:09.303Z,35.67
2019-05-26T19:11:39.403Z,35.75
2019-05-26T19:14:09.332Z,35.74
2019-05-26T19:16:39.507Z,35.80
2019-05-26T19:19:08.935Z,35.94
2019-05-26T19:21:38.481Z,36.02
2019-05-26T19:24:08.338Z,35.86
2019-05-26T19:26:37.958Z,35.82
2019-05-26T19:29:07.046Z,36.06
2019-05-26T19:31:36.424Z,36.00
2019-05-26T19:34:07.833Z,36.24
2019-05-26T19:36:36.941Z,36.34
2019-05-26T19:39:08.552Z,36.44
2019-05-26T19:41:39.335Z,36.11
2019-05-26T19:44:08.768Z,36.22
2019-05-26T19:46:38.188Z,36.40
2019-05-26T19:49:07.319Z,36.54
2019-05-26T19:51:36.464Z,36.49
2019-05-26T19:54:08.614Z,36.55
2019-05-26T19:56:37.849Z,36.85
2019-05-26T19:59:06.943Z,36.77
2019-05-26T20:01:36.310Z,36.96
2019-05-26T20:04:08.294Z,37.02
2019-05-26T20:06:37.412Z,36.97
2019-05-26T20:09:08.757Z,37.02
2019-05-26T20:11:38.690Z,37.30
2019-05-26T20:14:08.667Z,37.51
2019-05-26T20:16:39.931Z,37.69
2019-05-26T20:19:10.989Z,37.61
2019-05-26T20:21:40.338Z,37.70
2019-05-26T20:24:10.293Z,37.83
2019-05-26T20:26:42.507Z,37.97
2019-05-26T20:29:11.667Z,37.96
2019-05-26T20:31:41.210Z,37.86
2019-05-26T20:34:10.305Z,38.20
2019-05-26T20:36:39.544Z,38.26
2019-05-26T20:39:09.769Z,38.63
2019-05-26T20:41:38.935Z,38.91
2019-05-26T20:44:08.216Z,38.93
2019-05-26T20:46:38.004Z,39.14
2019-05-26T20:49:07.113Z,39.19
2019-05-26T20:51:36.270Z,39.51
2019-05-26T20:54:09.446Z,39.60
2019-05-26T20:56:39.936Z,39.81
2019-05-26T20:59:10.645Z,40.03
2019-05-26T21:01:41.742Z,40.16
2019-05-26T21:04:11.092Z,40.04
2019-05-26T21:06:40.169Z,40.13
2019-05-26T21:09:11.235Z,40.30
2019-05-26T21:11:45.645Z,40.39
2019-05-26T21:14:14.786Z,40.37
2019-05-26T21:16:46.433Z,40.49
2019-05-26T21:19:15.908Z,40.55
2019-05-26T21:21:45.074Z,40.34
2019-05-26T21:24:14.452Z,40.43
2019-05-26T21:26:43.550Z,40.65
2019-05-26T21:29:13.221Z,40.78
2019-05-26T21:31:43.925Z,40.82
2019-05-26T21:34:13.091Z,41.02
2019-05-26T21:36:43.344Z,41.10
2019-05-26T21:39:12.701Z,41.41
2019-05-26T21:41:41.760Z,41.32
2019-05-26T21:44:11.157Z,41.66
2019-05-26T21:46:43.123Z,41.66
2019-05-26T21:49:12.164Z,41.81
2019-05-26T21:51:43.757Z,41.78
2019-05-26T21:54:14.061Z,41.71
2019-05-26T21:56:43.386Z,41.84
2019-05-26T21:59:12.994Z,42.08
2019-05-26T22:01:42.125Z,42.06
2019-05-26T22:04:11.182Z,42.09
2019-05-26T22:06:40.567Z,42.01
2019-05-26T22:09:09.654Z,41.91
2019-05-26T22:11:38.709Z,42.02
2019-05-26T22:14:08.092Z,42.02
2019-05-26T22:16:37.140Z,41.98
2019-05-26T22:19:07.048Z,42.29
2019-05-26T22:21:36.126Z,42.31
2019-05-26T22:24:08.066Z,42.64
2019-05-26T22:26:37.425Z,42.83
2019-05-26T22:29:06.523Z,42.68
2019-05-26T22:31:35.590Z,42.64
2019-05-26T22:34:05.945Z,42.74
2019-05-26T22:36:35.096Z,42.95
2019-05-26T22:39:05.209Z,43.07
2019-05-26T22:41:34.578Z,43.27
2019-05-26T22:44:06.495Z,43.23
2019-05-26T22:46:35.605Z,43.51
2019-05-26T22:49:05.049Z,43.75
2019-05-26T22:51:34.159Z,43.91
2019-05-26T22:54:03.892Z,43.89
2019-05-26T22:56:32.973Z,44.18
2019-05-26T22:59:02.598Z,44.23
2019-05-26T23:01:32.053Z,44.49
2019-05-26T23:04:03.189Z,44.43
2019-05-26T23:06:32.200Z,44.47
2019-05-26T23:09:01.242Z,44.72
2019-05-26T23:11:30.571Z,44.96
2019-05-26T23:14:00.025Z,45.14
2019-05-26T23:16:29.117Z,45.25
2019-05-26T23:18:58.164Z,45.40
2019-05-26T23:21:28.465Z,45.56
2019-05-26T23:23:57.505Z,45.83
2019-05-26T23:26:26.572Z,45.90
2019-05-26T23:28:55.719Z,46.34
2019-05-26T23:31:25.642Z,46.48
2019-05-26T23:33:54.697Z,46.62
2019-05-26T23:36:23.858Z,46.62
2019-05-26T23:38:53.434Z,46.76
2019-05-26T23:41:22.534Z,46.87
2019-05-26T23:43:51.670Z,47.27
2019-05-26T23:46:20.755Z,47.21
2019-05-26T23:48:50.119Z,47.52
2019-05-26T23:51:19.206Z,47.53
2019-05-26T23:53:48.248Z,48.00
2019-05-26T23:56:17.705Z,48.28
2019-05-26T23:58:47.217Z,48.87
